arxmliv
arxmliv build tool
 
KWARC group
LaTeXML
About
   
 

Detailed info

Back to Homepage

List of missing_macros

No. Date Filename num_warningnum_errornum_xmargok_xmargnum_xmathok_xmathMissing macros
88001 2013-03-13 23:47:18 /0810/0810.3631 030000[\section, \cite, \label].
88002 2013-03-13 23:47:04 /0810/0810.3639 0120000[\PACSes, \BY, {narrowtabular}, \atque, \acknowledgments, \PACSit, \from, \ETC, \TITLE, Align, \IN, \instlist].
88003 2013-03-13 23:47:01 /0810/0810.3622 210000[\institute].
88004 2013-03-13 23:46:58 /0810/0810.3619 4660000[\href, \midrule, \psfrag, {psfrags}, \toprule, \bottomrule].
88005 2013-03-13 23:46:46 /0810/0810.3588 410000[\theappendix].
88006 2013-03-13 23:46:46 /0810/0810.3626 230000[\authorblockN, \authorblockA, \IEEEpeerreviewmaketitle]; 1 missing file[IEEEtran.cls].
88007 2013-03-13 23:46:36 /0810/0810.3627 130000[\unit].
88008 2013-03-13 23:46:18 /0810/0810.3614 580000[\mnras, \apjs, \apj, \araa, \apjl, \nat, \ead]; 1 missing file[aas_macros.sty].
88009 2013-03-13 23:46:11 /0810/0810.3618 3160000[\pt, \xspace, \mumu, \highL, \ra, \piminus, \lowL, \kshort, \Bs, \Bd, \kplus, \GeV, \Jpsi]; 1 missing file[atlasphysics.sty].
88010 2013-03-13 23:45:43 /0810/0810.3581 4130000[\titlecomment, \lsuper, \theoremstyle, \lmcsheading, {exa}, \qed, \keywords, \address, \thethm, \rsuper, \email, \subjclass, {proof}]; 1 missing file[LMCS.cls].
88011 2013-03-13 23:45:33 /0810/0810.3580 3240000[\text]; 1 missing file[apjfonts.sty].
88012 2013-03-13 23:45:16 /0810/0810.3591 040000[\affil, \acknowledgements]; 2 missing files[ctable.sty, asp2006.sty].
88013 2013-03-13 23:44:44 /0810/0810.3565 16110000[\theappendix].
88014 2013-03-13 23:44:36 /0810/0810.3402 92740000[\partfont, \rInto, \xymatrix, \dTo, Align, \diagramstyle, {comment}, \psfrag, \ar, {diagram}]; 3 missing files[type1cm.sty, sectsty.sty, xy.sty].
88015 2013-03-13 23:44:00 /0810/0810.3532 9720000[\psfrag, \geometry].
88016 2013-03-13 23:43:28 /0810/0810.3550 2010000[\geometry].
88017 2013-03-13 23:43:26 /0810/0810.3548 530000[\includegraphics, \ShortTitle, \FullConference]; 1 missing file[PoS.cls].
88018 2013-03-13 23:43:24 /0810/0810.3551 1530000[{theacknowledgments}, \layoutstyle, \classification].
88019 2013-03-13 23:43:23 /0810/0810.3547 240000[\ShortTitle, \email, \FullConference, \speaker]; 1 missing file[PoS.cls].
88020 2013-03-13 23:43:16 /0810/0810.3537 1680000[\affil, Align, \journalid, \accepted, \slugcomment, \revised, \authoraddr, \received]; 1 missing file[ametsocjmk.cls].
88021 2013-03-13 23:43:14 /0810/0810.3495 7930000[{comment}].
88022 2013-03-13 23:42:48 /0810/0810.3545 7170000[\affil, \copyrightyear, \issuenumber, \contributor, {article}, \volume, \theappendix, \footlineauthor, \dropcap, \url, \materialbffont, {acknowledgments}, \unit, \issuedate, \keywords, \subsectionfont, \materialfont]; 1 missing file[pnastwo.cls].
88023 2013-03-13 23:42:27 /0810/0810.3543 110000[\normalem].
88024 2013-03-13 23:42:00 /0810/0810.3517 160000[\mr, \br, \ead].
88025 2013-03-13 23:41:35 /0810/0810.3523 030000[\theappendix, \affiliation, {acknowledgements}].
88026 2013-03-13 23:41:32 /0810/0810.3493 460000[\address, \journal, {frontmatter}, \captionsfrancais, \ead]; 1 missing file[elsart3-1-ppt.cls].
88027 2013-03-13 23:41:26 /0810/0810.3505 030000[\layoutstyle, \classification]; 1 missing file[{aipcheck}].
88028 2013-03-13 23:41:14 /0810/0810.3507 330000[\thechapter, \fancyplain, \@currentID]; 1 missing file[CoAst.cls].
88029 2013-03-13 23:40:53 /0810/0810.3500 760000[\catchline, {history}, \psfig, \revised, \received].
88030 2013-03-13 23:40:52 /0810/0810.3503 0120000[\Issue, \accepted, \Month, \institute, \Yearsubmission, \Volume, \Yearpublication, \publonline, \Pagespan, \titlerunning, \authorrunning, \received].
88031 2013-03-13 23:40:47 /0810/0810.3486 1130000[\theappendix, \blacklozenge]; 1 missing file[qsymbols.sty].
88032 2013-03-13 23:40:42 /0810/0810.3490 8510000[\smaller].
88033 2013-03-13 23:40:25 /0810/0810.3459 710000[\theappendix].
88034 2013-03-13 23:40:25 /0810/0810.3471 510000[\theappendix].
88035 2013-03-13 23:39:58 /0810/0810.3468 230000[\authorblockN, \authorblockA]; 1 missing file[IEEEtran.cls].
88036 2013-03-13 23:39:40 /0810/0810.3458 26230000[{lemma}, {theorem}, \pdfbookmark, \LastPageEnding, \Classification, \ArticleDates, {example}, {remark}, \AuthorNameForHeading, \ar, {proposition}, \Abstract, \ArticleName, \ShortArticleName, \FirstPageHeading, \xymatrix, \Address, \Author, Align, \Email,
88037 2013-03-13 23:39:40 /0810/0810.3479 440000[Align, \xymatrix, \ar]; 1 missing file[xy.sty].
88038 2013-03-13 23:38:52 /0810/0810.3445 5520000[\gtrsim, \lesssim].
88039 2013-03-13 23:38:41 /0810/0810.3449 1280000[{acknowledgments}, \affil, \citep, {article}, \authoraddr, \authorrunninghead, {comment}, \titlerunninghead]; 1 missing file[agutex.cls].
88040 2013-03-13 23:38:40 /0810/0810.3463 10240000[\ArrowArc, {overpic}, \Photon, \Vertex, \Text, \DashCArc, \DashArrowArc, \PhotonArc, \DashLine]; 2 missing files[psfragx.sty, shadow.sty].
88041 2013-03-13 23:37:53 /0810/0810.3427 8030000[\vvvert, \braket]; 1 missing file[{epsf}].
88042 2013-03-13 23:37:22 /0810/0810.3423 61330000[\geometry].
88043 2013-03-13 23:37:09 /0810/0810.3441 390000[\isotope, \FullConference, \graphicspath, \acknowledgments, \ShortTitle, \includegraphics, \email, \speaker]; 2 missing files[isotope.sty, PoS.cls].
88044 2013-03-13 23:36:36 /0810/0810.3422 1450000[\authorblockN, {keywords}, \authorrefmark, \authorblockA, \IEEEoverridecommandlockouts]; 1 missing file[IEEEtran.cls].
88045 2013-03-13 23:36:18 /0810/0810.3328 4720000[{sidewaystable}].
88046 2013-03-13 23:35:58 /0810/0810.3412 21120000[Align, \xymatrix, \ar]; 9 missing files[xycurve.sty, xymatrix.sty, xyline.sty, xyarrow.sty, xycmtip.sty, xycolor.sty, xyrotate.sty, xyframe.sty, xygraph.sty].
88047 2013-03-13 23:35:36 /0810/0810.3403 2010000[\theappendix].
88048 2013-03-13 23:35:12 /0810/0810.3414 330000[\thechapter, \fancyplain, \@currentID]; 1 missing file[CoAst.cls].
88049 2013-03-13 23:35:02 /0810/0810.3393 090000[\affil, \acknowledgements, \aap, \plottwo]; 1 missing file[asp2006.sty].
88050 2013-03-13 23:34:37 /0810/0810.3404 2820000[\@end@institute, \psfrag].
88051 2013-03-13 23:33:45 /0810/0810.3372 13840000[Align, {subeqnarray}].
88052 2013-03-13 23:33:40 /0810/0810.3373 7930000[\hdashline].
88053 2013-03-13 23:33:33 /0810/0810.3391 130000[{theacknowledgments}, \layoutstyle, \classification].
88054 2013-03-13 23:33:16 /0810/0810.3376 16200000[\includegraphics, \ShortTitle, \email, \FullConference, \speaker]; 1 missing file[PoS.cls].
88055 2013-03-13 23:33:12 /0810/0810.3377 180000[\sodauthor, \rauthor, \address, \sodtitle, \dates, \lat, \PACS, \rtitle].
88056 2013-03-13 23:32:13 /0810/0810.3357 96120000[\eIf, {algorithm}, \addlinespace, \dontprintsemicolon, \For, \KwIn, \KwRet, \columncolor, \arrayrulecolor].
88057 2013-03-13 23:31:56 /0810/0810.3356 050000[{comment}].
88058 2013-03-13 23:31:45 /0810/0810.3360 6130000[Align, \xymatrix, \ar]; 10 missing files[xycurve.sty, xymatrix.sty, xyline.sty, xyarrow.sty, xycmtip.sty, xycolor.sty, xyrotate.sty, xy.sty, xyframe.sty, xygraph.sty].
88059 2013-03-13 23:31:16 /0810/0810.3347 490000[{acknowledgments}, \firstsection, \editors, \affiliation, \jname, \pagerange, \keywords, \volume, \pubyear]; 1 missing file[iaus.cls].
88060 2013-03-13 23:30:58 /0810/0810.3350 1240000[\psfrag, \ld].
88061 2013-03-13 23:30:31 /0810/0810.3300 18430000[Align, \xymatrix, \ar].
88062 2013-03-13 23:29:57 /0810/0810.3279 2610000[{comment}].
88063 2013-03-13 23:29:48 /0810/0810.3311 2120000[{acknowledgments}, \editors, \affiliation, \discuss, \keywords, \volume, \firstsection, \gtrsim, {discussion}, \pagerange, \jname, \pubyear]; 1 missing file[iaus.cls].
88064 2013-03-13 23:29:01 /0810/0810.3308 1350000[Align, \xymatrix, \ar]; 2 missing files[oldgerm.sty, xy.sty].
88065 2013-03-13 23:28:34 /0810/0810.3286 7100000[\alginout, {algorithm}, \algforto, \algdescript, \algrepeat, \alguntil, {algtab}, \algifthen, \algend].
88066 2013-03-13 23:28:15 /0810/0810.3282 1710000[\linenumbers].
88067 2013-03-13 23:28:02 /0810/0810.3254 27340000[\xyoption, \shortintertext, {multlined}]; 2 missing files[mathtools.sty, xy.sty].
88068 2013-03-13 23:27:31 /0810/0810.3270 440000[{rotate}].
88069 2013-03-13 23:27:18 /0810/0810.3263 6320000[\bm, \catchline, {history}, \psfig, \revised, \refcite, \keywords, \received].
88070 2013-03-13 23:26:32 /0810/0810.3224 7610000[\@end@institute].
88071 2013-03-13 23:26:04 /0810/0810.3249 210000[\E].
88072 2013-03-13 23:25:52 /0810/0810.3253 390000[\ArrowArc, \Line, \FullConference, \ShortTitle, \Vertex, \ArrowLine, \email, \LongArrow, \speaker]; 1 missing file[PoS.cls].
88073 2013-03-13 23:25:50 /0810/0810.3252 120000[\affil, \keywords]; 1 missing file[esapub2005.cls].
88074 2013-03-13 23:25:49 /0810/0810.3240 4310000[\theappendix].
88075 2013-03-13 23:25:25 /0810/0810.3241 33180000[\includegraphics, \ShortTitle, \email, \FullConference, \rotatebox, \speaker]; 1 missing file[PoS.cls].
88076 2013-03-13 23:25:08 /0810/0810.3229 9140000[\smaller, {overpic}]; 1 missing file[eso-pic.sty].
88077 2013-03-13 23:25:01 /0810/0810.3236 720000[Align]; 1 missing file[myaasmacros.sty].
88078 2013-03-13 23:23:37 /0810/0810.3205 010000[\captionsfrancais].
88079 2013-03-13 23:23:27 /0810/0810.3204 3110000[\htmladdnormallink].
88080 2013-03-13 23:23:16 /0810/0810.3173 9810000[\theappendix].
88081 2013-03-13 23:23:14 /0810/0810.3199 230000[\thanksref, \thankstext]; 1 missing file[thanks.sty].
88082 2013-03-13 23:23:13 /0810/0810.3177 46250000[{algorithm}, \startlocaldefs, \affiliation, \runtitle, \For, \address, \kwd, \eIf, \CommentSty, \snm, \While, \fnms, {keyword}, \endlocaldefs, {aug}, \dontprintsemicolon, \runauthor, \BlankLine, \printead, {frontmatter}, \ead]; 1 missing file[imsart.cls]
88083 2013-03-13 23:23:13 /0810/0810.3189 5190000[\endxy, \xy, \xypolygon]; 1 missing file[xy.sty].
88084 2013-03-13 23:23:07 /0810/0810.3183 150000[\mnras, \apj, \aj, \pasp]; 1 missing file[aas_macros.sty].
88085 2013-03-13 23:23:05 /0810/0810.3182 2430000[\thanksref, \thankstext]; 1 missing file[thanks.sty].
88086 2013-03-13 23:23:03 /0810/0810.3198 1240000[\preprint, \email, \dedicated, \acknowledgments]; 1 missing file[AKRSX.cls].
88087 2013-03-13 23:23:02 /0810/0810.3200 760000[\includegraphics, \contribID, \lesssim, \doi, \desyproc, \acronym]; 1 missing file[desyproc.cls].
88088 2013-03-13 23:22:55 /0810/0810.3162 10930000[{@proof}].
88089 2013-03-13 23:22:55 /0810/0810.3202 1540000[\preprint, \email, \dedicated, \acknowledgments]; 1 missing file[AKRSX.cls].
88090 2013-03-13 23:22:37 /0810/0810.3190 010000[\theappendix].
88091 2013-03-13 23:22:13 /0810/0810.3194 840000[\ccode, \catchline, \keywords]; 1 missing file[ws.sty].
88092 2013-03-13 23:21:39 /0810/0810.3138 4260000[Align, \SelectTips, \xymatrix, \newdir, \ar]; 1 missing file[xy.sty].
88093 2013-03-13 23:21:34 /0810/0810.3131 17150000[\Abstract, \ArticleName, \EmailD, \ShortArticleName, \FirstPageHeading, \Address, \pdfbookmark, \LastPageEnding, \Classification, \ArticleDates, \Author, {corollary}, \AuthorNameForHeading, \Keywords, {proposition}].
88094 2013-03-13 23:21:34 /0810/0810.3160 330000[\address, \TitreGlobal, \runningtitle]; 1 missing file[sf2a-conf.cls].
88095 2013-03-13 23:21:34 /0810/0810.3168 1260000[Align, \textrbrackdbl, \xymatrix, \entrymodifiers, \ar]; 1 missing file[xy.sty].
88096 2013-03-13 23:21:26 /0810/0810.3166 15580000[\simas, \XRGI, \Raop, \Raov, \lesssim, \rmO, \lMSbar, \kv, \nf, \kone, \za, \zastat, \gbsq, \vecB, \ba, \amqq, \bottomrule, \speaker, \zRGIstat, \Gamv, \bx, \Cmass, \vecD, \FullConference, \midrule, \hopc, \ml, \mbar, \Cx, \fastat, \Yv, \fa, \Xbare, \Gam
88097 2013-03-13 23:21:25 /0810/0810.3163 010000[\IfFileExists].
88098 2013-03-13 23:21:12 /0810/0810.3125 188320000[{keywords}, {LaTeXenumerate}, \IEEEpeerreviewmaketitle, \appendices, {proof}]; 1 missing file[IEEEtran.cls].
88099 2013-03-13 23:20:57 /0810/0810.3154 280000[{definition}, \mathds, {theorem}, {remark}, {proof}, \rrbracket, {Proof}, \llbracket].
88100 2013-03-13 23:20:39 /0810/0810.3155 270000[\meter, {theacknowledgments}, \layoutstyle, \tablehead, \arcsecond, \classification]; 1 missing file[aas_macros.sty].
88101 2013-03-13 23:20:26 /0810/0810.3145 86110000[\includegraphics, \ShortTitle, \email, \FullConference, \speaker]; 1 missing file[PoS.cls].
88102 2013-03-13 23:20:10 /0810/0810.3132 440000[Align, \xymatrix, \ar]; 1 missing file[xy.sty].
88103 2013-03-13 23:20:00 /0810/0810.3107 8840000[Align, \xymatrix, \ar]; 1 missing file[xy.sty].
88104 2013-03-13 23:19:52 /0810/0810.3112 48180000[\Abstract, \ArticleName, {theorem}, \ShortArticleName, \FirstPageHeading, \Address, \pdfbookmark, \LastPageEnding, \Classification, \ArticleDates, \Author, \Email, \AuthorNameForHeading, \Keywords, {proposition}].
88105 2013-03-13 23:18:10 /0810/0810.3079 8240000[{comment}].
88106 2013-03-13 23:18:04 /0810/0810.3089 56180000[\includegraphics, \pacs, \email, \inst, \endnote, \institute, \keywords, \articletype]; 1 missing file[cej.cls].
88107 2013-03-13 23:18:01 /0810/0810.3117 690000[\includegraphics, \ShortTitle, \email, \FullConference, \acknowledgments, \speaker]; 1 missing file[PoS.cls].
88108 2013-03-13 23:17:35 /0810/0810.3106 7120000[\eqref, \lesssim, \doi, \includegraphics, \contribID, \gtrsim, \desyproc, \acronym]; 1 missing file[desyproc.cls].
88109 2013-03-13 23:17:09 /0810/0810.3077 2280000[\arcmin, \apj, \timeform, \citep, \emissiontype, \pasj, \apjl, \nat, \aap, \gca, \Accepted, \email, \pasp, \araa, \KeyWords, \aj, \iaucirc, \apss, \altaffilmark, \Received, \mnras, \apjs, \FigureFile, \gtrsim, \citet, \altaffiltext, \farcs, \SetRunningHe
88110 2013-03-13 23:17:05 /0810/0810.3016 21520000[\affiliation, {acknowledgements}]; 1 missing file[amfstyle.cls].
88111 2013-03-13 23:16:40 /0810/0810.3021 5310000[@ ].
88112 2013-03-13 23:16:18 /0810/0810.3063 6240000[Align, \xymatrix, \ar]; 1 missing file[xy.sty].
88113 2013-03-13 23:16:12 /0810/0810.3074 410000[\citen].
88114 2013-03-13 23:15:42 /0810/0810.3076 050000[\email, \affaddr, \numberofauthors, \alignauthor, \keywords].
88115 2013-03-13 23:15:25 /0810/0810.3066 2140000[\includegraphics, \ShortTitle, \email, \FullConference, \speaker]; 1 missing file[PoS.cls].
88116 2013-03-13 23:15:18 /0810/0810.3049 250000[\includegraphics, \ocis, \address]; 2 missing files[ol2.sty, endfloat.sty].
88117 2013-03-13 23:15:11 /0810/0810.3042 330000[{theacknowledgments}, \layoutstyle, \classification].
88118 2013-03-13 23:14:58 /0810/0810.3020 6340000[\acontraction, \psfrag]; 2 missing files[time.sty, simplewick.sty].
88119 2013-03-13 23:14:54 /0810/0810.3043 10180000[\Book, \pacs, \inst, \shortauthor, \institute, \includegraphics, \decimal, \Publ, \email, \Name, \Editor, \Year, \etal, \REVIEW]; 2 missing files[fmtcount.sty, epl2.cls].
88120 2013-03-13 23:14:43 /0810/0810.3023 5490000[\citeyear]; 1 missing file[chicagor.sty].
88121 2013-03-13 23:14:21 /0810/0810.3024 3010000[\gets].
88122 2013-03-13 23:14:14 /0810/0810.3025 540000[\restoresymbol, \savesymbol]; 1 missing file[savesymbol.sty].
88123 2013-03-13 23:13:13 /0810/0810.3009 860000[\includegraphics, \contribID, \lesssim, \doi, \desyproc, \acronym]; 1 missing file[desyproc.cls].
88124 2013-03-13 23:13:08 /0810/0810.2990 6610000[\xyoption].
88125 2013-03-13 23:12:37 /0810/0810.3002 210000[\theappendix].
88126 2013-03-13 23:12:18 /0810/0810.2987 020000[\ack, \ead].
88127 2013-03-13 23:12:09 /0810/0810.2964 31010000[\psfrag].
88128 2013-03-13 23:12:01 /0810/0810.2993 240000[\ShortTitle, \email, \FullConference, \speaker]; 1 missing file[PoS.cls].
88129 2013-03-13 23:11:30 /0810/0810.2995 0120000[\affil, \apj, \citep, \apjl, \solphys, \aap, \nat, \mnras, Align, \citet, \acknowledgements]; 1 missing file[asp2006.sty].
88130 2013-03-13 23:11:09 /0810/0810.2985 460000[{biographynophoto}, \authorblockN, \PARstart, \authorblockA, {biography}, \IEEEpeerreviewmaketitle]; 1 missing file[IEEEtran.cls].
88131 2013-03-13 23:11:04 /0810/0810.2984 320000[\toctitle]; 1 missing file[type1cm.sty].
88132 2013-03-13 23:10:56 /0810/0810.2973 220000[\theappendix, \al@[].
88133 2013-03-13 23:10:51 /0810/0810.2966 730000[\smaller].
88134 2013-03-13 23:10:45 /0810/0810.2937 3610000[\@footnotetext].
88135 2013-03-13 23:10:42 /0810/0810.2967 1670000[\includegraphics, \ccode, \catchline, \refcite, \pub, \keywords]; 1 missing file[ws.sty].
88136 2013-03-13 23:10:29 /0810/0810.2969 160000[\includegraphics, \ShortTitle, \email, \FullConference, \acknowledgments, \speaker]; 1 missing file[PoS.cls].
88137 2013-03-13 23:10:17 /0810/0810.2955 510000[\listfiles].
88138 2013-03-13 23:09:54 /0810/0810.2945 1050000[\if@display].
88139 2013-03-13 23:09:36 /0810/0810.2963 27130000[\ack, {thereferences}, \ead].
88140 2013-03-13 23:09:25 /0810/0810.2924 5630000[\@setckpt, \IEEEoverridecommandlockouts, \appendices]; 1 missing file[IEEEtran.cls].
88141 2013-03-13 23:09:14 /0810/0810.2935 14100000[\Ast, \pacs, \institute, \resizebox, \includegraphics, \published, \titlerunning, \mail, \authorrunning, \received]; 1 missing file[wiley2sp.cls].
88142 2013-03-13 23:08:50 /0810/0810.2941 60100000[\subref].
88143 2013-03-13 23:08:42 /0810/0810.2894 8110000[\Reals].
88144 2013-03-13 23:08:37 /0810/0810.2919 2610000[{comment}].
88145 2013-03-13 23:08:25 /0810/0810.2915 440000[\kword, \abst, \inst, \recdate].
88146 2013-03-13 23:08:10 /0810/0810.2931 030000[\layoutstyle, \classification]; 1 missing file[{aipcheck}].
88147 2013-03-13 23:07:50 /0810/0810.2916 040000[\xyoption, \CompileMatrices]; 1 missing file[xy.sty].
88148 2013-03-13 23:07:44 /0810/0810.2923 130000[\textdegree, \layoutstyle, \classification].
88149 2013-03-13 23:07:38 /0810/0810.2921 330000[\psfrag].
88150 2013-03-13 23:07:15 /0810/0810.2877 15110000[\theappendix].
88151 2013-03-13 23:06:43 /0810/0810.2900 020000[\backslashbox]; 1 missing file[slashbox.sty].
88152 2013-03-13 23:06:43 /0810/0810.2901 1050000[\hertz, \volt, \second, \milli]; 1 missing file[fancyunits.sty].
88153 2013-03-13 23:06:31 /0810/0810.2899 050000[{tablenotes}, \tnote, {threeparttable}]; 1 missing file[threeparttable.sty].
88154 2013-03-13 23:06:30 /0810/0810.2853 1870000[\xyoption]; 2 missing files[pgf.sty, xy.sty].
88155 2013-03-13 23:06:17 /0810/0810.2886 030000[\topmargin, \textheight, \textwidth].
88156 2013-03-13 23:06:14 /0810/0810.2888 2910000[\smaller].
88157 2013-03-13 23:06:11 /0810/0810.2868 1610000[\substack].
88158 2013-03-13 23:06:10 /0810/0810.2870 12100000[{acknowledgments}, \meter, \surname, \pacs, \affiliation, \includegraphics, \email, \onlinecite]; 1 missing file[jasatex.cls].
88159 2013-03-13 23:06:05 /0810/0810.2865 140000[{comment}]; 1 missing file[thanks.sty].
88160 2013-03-13 23:05:45 /0810/0810.2874 3330000[{theacknowledgments}, \layoutstyle, \classification].
88161 2013-03-13 23:05:44 /0810/0810.2873 340000[\ShortTitle, \email, \FullConference, \speaker]; 1 missing file[PoS.cls].
88162 2013-03-13 23:05:32 /0810/0810.2858 1440000[\geometry].
88163 2013-03-13 23:05:32 /0810/0810.2861 3440000[Align, {game}]; 1 missing file[sgame.sty].
88164 2013-03-13 23:05:01 /0810/0810.2819 8340000[Align, \xymatrix, \ar]; 1 missing file[xy.sty].
88165 2013-03-13 23:04:53 /0810/0810.2866 030000[\extrasenglish, \dateenglish, \captionsenglish].
88166 2013-03-13 23:04:41 /0810/0810.2839 1310000[\a].
88167 2013-03-13 23:03:54 /0810/0810.2826 930000[\theappendix].
88168 2013-03-13 23:03:48 /0810/0810.2704 233200000[Align, \xymatrix, \ar]; 1 missing file[xy.sty].
88169 2013-03-13 23:03:40 /0810/0810.2789 187130000[\operatorfont].
88170 2013-03-13 23:03:30 /0810/0810.2833 860000[\ShortTitle, \fm, \email, \FullConference, \MeV, \speaker]; 1 missing file[PoS.cls].
88171 2013-03-13 23:03:22 /0810/0810.2825 150000[\pdfadjustspacing, {sidewaysfigure}]; 1 missing file[microtype.sty].
88172 2013-03-13 23:02:49 /0810/0810.2810 14120000[Align, \xymatrix, \ar]; 9 missing files[xycurve.sty, xymatrix.sty, xyline.sty, xyarrow.sty, xycmtip.sty, xycolor.sty, xyrotate.sty, xyframe.sty, xygraph.sty].
88173 2013-03-13 23:02:38 /0810/0810.2814 2320000[\sethlcolor]; 1 missing file[soul.sty].
88174 2013-03-13 23:02:34 /0810/0810.2788 24230000[\theappendix].
88175 2013-03-13 23:02:09 /0810/0810.2811 140000[\skiplinehalf, \acknowledgments, \keywords, \supit]; 1 missing file[spie.cls].
88176 2013-03-13 23:01:55 /0810/0810.2802 1510000[\apj, \aj, \apjl, \aap, \nat, \mnras, \apjs, \physscr, \araa]; 2 missing files[deluxetable.sty, aas_macros.sty].
88177 2013-03-13 23:01:48 /0810/0810.2797 330000[\thechapter, \fancyplain, \@currentID]; 1 missing file[CoAst.cls].
88178 2013-03-13 23:01:47 /0810/0810.2778 9550000[\captiontitlefont, \captionnamefont, \hangcaption, \captiondelim]; 1 missing file[ccaption.sty].
88179 2013-03-13 23:01:39 /0810/0810.2785 520000[\epsffile, \epsfxsize].
88180 2013-03-13 23:01:36 /0810/0810.2754 2910000[\psfrag].
88181 2013-03-13 23:00:36 /0810/0810.2776 0960000[\noextrasportuguese].
88182 2013-03-13 22:59:55 /0810/0810.2744 14350000[Align, \psfrag, \xymatrix, \ar]; 1 missing file[xy.sty].
88183 2013-03-13 22:59:38 /0810/0810.2733 29130000[\drawdim, \centertexdraw, \avec, \larc, \lvec, \fcir, @ , \htext, \linewd, \lcir, \lellip, \move, \arrowheadtype].
88184 2013-03-13 22:59:33 /0810/0810.2749 030000[\extrasenglish, \dateenglish, \captionsenglish].
88185 2013-03-13 22:59:29 /0810/0810.2739 2220000[\ilimits@].
88186 2013-03-13 22:59:27 /0810/0810.2741 23180000[\volumenumber, {theorem}, \diagram, \noextrasenglish, \dateenglish, \endCD, \yearnumber, \extrasenglish, \diagramstyle, {corollary}, {remark}, \articolo, {proposition}, \volumeyear, \captionsenglish]; 1 missing file[book.sty].
88187 2013-03-13 22:59:22 /0810/0810.2761 9340000[Align, \xymatrix, \ar]; 1 missing file[xy.sty].
88188 2013-03-13 22:59:15 /0810/0810.2743 24240000[\@endpefalse, \@addpunct]; 2 missing files[u.fontmap, e-jc.sty].
88189 2013-03-13 22:58:29 /0810/0810.2711 125280000[\psfrag].
88190 2013-03-13 22:56:08 /0810/0810.2724 030000[{theacknowledgments}, \layoutstyle, \classification].
88191 2013-03-13 22:56:03 /0810/0810.2722 0270000[\affil, \ion, \citep, \citet]; 1 missing file[asp2006.sty].
88192 2013-03-13 22:55:54 /0810/0810.2726 470000[\editors, \affiliation, \jname, \pagerange, \keywords, \volume, \pubyear]; 1 missing file[iaus.cls].
88193 2013-03-13 22:55:53 /0810/0810.2708 150000[\authorinfo, \skiplinehalf, \keywords, \supit]; 2 missing files[spie.cls, aas_macros.sty].
88194 2013-03-13 22:55:16 /0810/0810.2700 150000[\authorinfo, \skiplinehalf, \keywords, \supit]; 2 missing files[spie.cls, aas_macros.sty].
88195 2013-03-13 22:55:15 /0810/0810.2690 730000[{theacknowledgments}, \layoutstyle, \classification].
88196 2013-03-13 22:55:00 /0810/0810.2696 520000[\mathinner]; 1 missing file[xy.sty].
88197 2013-03-13 22:54:42 /0810/0810.2693 550000[\authorinfo, \skiplinehalf, \keywords, \supit]; 2 missing files[spie.cls, aas_macros.sty].
88198 2013-03-13 22:54:32 /0810/0810.2661 110000[\theappendix].
88199 2013-03-13 22:54:21 /0810/0810.2659 2810000[\IEEEmembership]; 1 missing file[IEEEtran.cls].
88200 2013-03-13 22:54:17 /0810/0810.2653 5150000[\enddiagram, Align, \drto, \urto, \diagram].
<<< >>>

[0] [200] [400] [600] [800] [1000] [1200] [1400] [1600] [1800] [2000] [2200] [2400] [2600] [2800] [3000] [3200] [3400] [3600] [3800] [4000] [4200] [4400] [4600] [4800] [5000] [5200] [5400] [5600] [5800] [6000] [6200] [6400] [6600] [6800] [7000] [7200] [7400] [7600] [7800] [8000] [8200] [8400] [8600] [8800] [9000] [9200] [9400] [9600] [9800] [10000] [10200] [10400] [10600] [10800] [11000] [11200] [11400] [11600] [11800] [12000] [12200] [12400] [12600] [12800] [13000] [13200] [13400] [13600] [13800] [14000] [14200] [14400] [14600] [14800] [15000] [15200] [15400] [15600] [15800] [16000] [16200] [16400] [16600] [16800] [17000] [17200] [17400] [17600] [17800] [18000] [18200] [18400] [18600] [18800] [19000] [19200] [19400] [19600] [19800] [20000] [20200] [20400] [20600] [20800] [21000] [21200] [21400] [21600] [21800] [22000] [22200] [22400] [22600] [22800] [23000] [23200] [23400] [23600] [23800] [24000] [24200] [24400] [24600] [24800] [25000] [25200] [25400] [25600] [25800] [26000] [26200] [26400] [26600] [26800] [27000] [27200] [27400] [27600] [27800] [28000] [28200] [28400] [28600] [28800] [29000] [29200] [29400] [29600] [29800] [30000] [30200] [30400] [30600] [30800] [31000] [31200] [31400] [31600] [31800] [32000] [32200] [32400] [32600] [32800] [33000] [33200] [33400] [33600] [33800] [34000] [34200] [34400] [34600] [34800] [35000] [35200] [35400] [35600] [35800] [36000] [36200] [36400] [36600] [36800] [37000] [37200] [37400] [37600] [37800] [38000] [38200] [38400] [38600] [38800] [39000] [39200] [39400] [39600] [39800] [40000] [40200] [40400] [40600] [40800] [41000] [41200] [41400] [41600] [41800] [42000] [42200] [42400] [42600] [42800] [43000] [43200] [43400] [43600] [43800] [44000] [44200] [44400] [44600] [44800] [45000] [45200] [45400] [45600] [45800] [46000] [46200] [46400] [46600] [46800] [47000] [47200] [47400] [47600] [47800] [48000] [48200] [48400] [48600] [48800] [49000] [49200] [49400] [49600] [49800] [50000] [50200] [50400] [50600] [50800] [51000] [51200] [51400] [51600] [51800] [52000] [52200] [52400] [52600] [52800] [53000] [53200] [53400] [53600] [53800] [54000] [54200] [54400] [54600] [54800] [55000] [55200] [55400] [55600] [55800] [56000] [56200] [56400] [56600] [56800] [57000] [57200] [57400] [57600] [57800] [58000] [58200] [58400] [58600] [58800] [59000] [59200] [59400] [59600] [59800] [60000] [60200] [60400] [60600] [60800] [61000] [61200] [61400] [61600] [61800] [62000] [62200] [62400] [62600] [62800] [63000] [63200] [63400] [63600] [63800] [64000] [64200] [64400] [64600] [64800] [65000] [65200] [65400] [65600] [65800] [66000] [66200] [66400] [66600] [66800] [67000] [67200] [67400] [67600] [67800] [68000] [68200] [68400] [68600] [68800] [69000] [69200] [69400] [69600] [69800] [70000] [70200] [70400] [70600] [70800] [71000] [71200] [71400] [71600] [71800] [72000] [72200] [72400] [72600] [72800] [73000] [73200] [73400] [73600] [73800] [74000] [74200] [74400] [74600] [74800] [75000] [75200] [75400] [75600] [75800] [76000] [76200] [76400] [76600] [76800] [77000] [77200] [77400] [77600] [77800] [78000] [78200] [78400] [78600] [78800] [79000] [79200] [79400] [79600] [79800] [80000] [80200] [80400] [80600] [80800] [81000] [81200] [81400] [81600] [81800] [82000] [82200] [82400] [82600] [82800] [83000] [83200] [83400] [83600] [83800] [84000] [84200] [84400] [84600] [84800] [85000] [85200] [85400] [85600] [85800] [86000] [86200] [86400] [86600] [86800] [87000] [87200] [87400] [87600] [87800] [88000] [88200] [88400] [88600] [88800] [89000] [89200] [89400] [89600] [89800] [90000] [90200] [90400] [90600] [90800] [91000] [91200] [91400] [91600] [91800] [92000] [92200] [92400] [92600] [92800] [93000] [93200] [93400] [93600] [93800] [94000] [94200] [94400] [94600] [94800] [95000] [95200] [95400] [95600] [95800] [96000] [96200] [96400] [96600] [96800] [97000] [97200] [97400] [97600] [97800] [98000] [98200] [98400] [98600] [98800] [99000] [99200] [99400] [99600] [99800] [100000] [100200] [100400] [100600] [100800] [101000] [101200] [101400] [101600] [101800] [102000] [102200] [102400] [102600] [102800] [103000] [103200] [103400] [103600] [103800] [104000] [104200] [104400] [104600] [104800] [105000] [105200] [105400] [105600] [105800] [106000] [106200] [106400] [106600] [106800] [107000] [107200] [107400] [107600] [107800] [108000] [108200] [108400] [108600] [108800] [109000] [109200] [109400] [109600] [109800] [110000] [110200] [110400] [110600] [110800] [111000] [111200] [111400] [111600] [111800] [112000] [112200] [112400] [112600] [112800] [113000] [113200] [113400] [113600] [113800] [114000] [114200] [114400] [114600] [114800] [115000] [115200] [115400] [115600] [115800] [116000] [116200] [116400] [116600] [116800] [117000] [117200] [117400] [117600] [117800] [118000] [118200] [118400] [118600] [118800] [119000] [119200] [119400] [119600] [119800] [120000] [120200] [120400] [120600] [120800] [121000] [121200] [121400] [121600] [121800] [122000] [122200] [122400] [122600] [122800] [123000] [123200] [123400] [123600] [123800] [124000] [124200] [124400] [124600] [124800] [125000] [125200] [125400] [125600] [125800] [126000] [126200] [126400] [126600] [126800] [127000] [127200] [127400] [127600] [127800] [128000] [128200] [128400] [128600] [128800] [129000] [129200] [129400] [129600] [129800] [130000] [130200] [130400] [130600] [130800] [131000] [131200] [131400] [131600] [131800] [132000] [132200] [132400] [132600] [132800] [133000] [133200] [133400] [133600] [133800] [134000] [134200] [134400] [134600] [134800] [135000] [135200] [135400] [135600] [135800] [136000] [136200] [136400] [136600] [136800] [137000] [137200] [137400] [137600] [137800] [138000] [138200] [138400] [138600] [138800] [139000] [139200] [139400] [139600] [139800] [140000] [140200] [140400] [140600] [140800] [141000] [141200] [141400] [141600] [141800] [142000] [142200] [142400] [142600] [142800] [143000] [143200] [143400] [143600] [143800] [144000] [144200] [144400] [144600] [144800] [145000] [145200] [145400] [145600] [145800] [146000] [146200] [146400] [146600] [146800] [147000] [147200] [147400] [147600] [147800] [148000] [148200] [148400] [148600] [148800] [149000] [149200] [149400] [149600] [149800] [150000] [150200] [150400] [150600] [150800] [151000] [151200] [151400] [151600] [151800] [152000] [152200] [152400] [152600] [152800] [153000] [153200] [153400] [153600] [153800] [154000] [154200] [154400] [154600] [154800] [155000] [155200] [155400] [155600] [155800] [156000] [156200] [156400] [156600] [156800] [157000] [157200] [157400] [157600] [157800] [158000] [158200] [158400] [158600] [158800] [159000] [159200] [159400] [159600] [159800] [160000] [160200] [160400] [160600] [160800] [161000] [161200] [161400] [161600] [161800] [162000] [162200] [162400] [162600] [162800] [163000] [163200] [163400] [163600] [163800] [164000] [164200] [164400] [164600]
 
  The service has been written by
Heinrich Stamerjohanns